Time;durP1;ratioP1;P1;durP2;ratioP2;P2;SDS_P1;SDS_P2;PMS_P1;PMS_P2;Temp;Humidity;BMP_temperature;BMP_pressure;BME280_temperature;BME280_humidity;BME280_pressure;Samples;Min_cycle;Max_cycle;Signal;HPM_P1;HPM_P2
2023/03/11 00:00:32;;;;;;;;;21.00;18.33;;;;;5.80;100.00;100371.97;5023849;28;45907;-88
2023/03/11 00:03:00;;;;;;;;;17.67;12.33;;;;;5.96;100.00;100394.59;5024635;28;45468;-89
2023/03/11 00:05:31;;;;;;;;;22.00;19.33;;;;;5.82;100.00;100397.13;4996289;28;45373;-88
2023/03/11 00:07:57;;;;;;;;;14.33;11.00;;;;;5.54;100.00;100361.53;5006176;28;44738;-89
2023/03/11 00:10:31;;;;;;;;;21.33;17.67;;;;;5.90;100.00;100406.22;5020190;28;45604;-87
2023/03/11 00:12:58;;;;;;;;;17.33;16.67;;;;;5.92;100.00;100434.09;5026309;28;45294;-87
2023/03/11 00:15:24;;;;;;;;;16.33;16.33;;;;;5.95;100.00;100434.56;5027498;28;45378;-86
2023/03/11 00:17:54;;;;;;;;;16.67;16.33;;;;;6.05;100.00;100431.63;5014314;28;45327;-87
2023/03/11 00:20:41;;;;;;;;;15.00;14.00;;;;;5.97;100.00;100424.38;5006733;28;44742;-86
2023/03/11 00:23:07;;;;;;;;;20.33;19.33;;;;;6.04;100.00;100420.91;5015929;28;47152;-85
2023/03/11 00:25:37;;;;;;;;;22.33;17.00;;;;;6.05;100.00;100418.00;5012041;28;45493;-87
2023/03/11 00:28:06;;;;;;;;;15.00;11.67;;;;;5.71;100.00;100354.03;5010894;28;44776;-87
2023/03/11 00:30:32;;;;;;;;;22.00;19.00;;;;;5.90;100.00;100389.88;5005766;28;45426;-88
2023/03/11 00:32:58;;;;;;;;;21.00;19.00;;;;;5.57;100.00;100327.66;5024273;28;48309;-88
2023/03/11 00:35:27;;;;;;;;;19.67;18.67;;;;;5.91;100.00;100394.31;5010303;28;45419;-88
2023/03/11 00:37:56;;;;;;;;;22.00;20.33;;;;;5.77;100.00;100382.38;5010001;28;45483;-88
2023/03/11 00:40:24;;;;;;;;;18.25;16.25;;;;;5.66;100.00;100376.38;5009901;28;45851;-89
2023/03/11 00:42:50;;;;;;;;;18.67;17.67;;;;;5.62;100.00;100399.53;5013265;28;46510;-87
2023/03/11 00:45:16;;;;;;;;;10.33;9.33;;;;;5.73;100.00;100425.44;5012404;28;45770;-87
2023/03/11 00:47:42;;;;;;;;;15.00;13.67;;;;;5.62;100.00;100404.13;5015741;28;44799;-87
2023/03/11 00:50:12;;;;;;;;;14.33;14.33;;;;;5.28;100.00;100334.75;5045722;28;45951;-86
2023/03/11 00:52:37;;;;;;;;;17.67;14.67;;;;;5.77;100.00;100385.94;5021211;28;45483;-87
2023/03/11 00:55:04;;;;;;;;;17.00;17.00;;;;;5.66;100.00;100370.09;5015918;28;44701;-89
2023/03/11 00:57:30;;;;;;;;;22.00;16.33;;;;;5.54;100.00;100358.81;5012575;28;45062;-86
2023/03/11 00:59:55;;;;;;;;;12.67;12.33;;;;;5.43;100.00;100362.84;5012270;28;45391;-86
2023/03/11 01:02:21;;;;;;;;;13.00;11.00;;;;;5.52;100.00;100398.09;5010707;28;45724;-87
2023/03/11 01:04:47;;;;;;;;;16.67;14.67;;;;;5.65;100.00;100414.63;5030556;28;45504;-86
2023/03/11 01:07:12;;;;;;;;;15.00;11.33;;;;;5.56;100.00;100407.59;5015086;28;45427;-85
2023/03/11 01:09:38;;;;;;;;;19.00;15.00;;;;;5.45;100.00;100406.16;5015455;28;44792;-85
2023/03/11 01:12:04;;;;;;;;;13.00;12.00;;;;;5.64;100.00;100424.69;5014059;28;44952;-85
2023/03/11 01:14:29;;;;;;;;;11.67;11.67;;;;;5.68;100.00;100424.31;5000591;28;45391;-86
2023/03/11 01:16:55;;;;;;;;;12.50;11.50;;;;;5.69;100.00;100407.81;5014132;28;45281;-84
2023/03/11 01:19:21;;;;;;;;;16.00;15.00;;;;;5.66;100.00;100400.84;5024583;28;46281;-85
2023/03/11 01:21:47;;;;;;;;;13.67;11.00;;;;;5.50;100.00;100372.97;5014023;28;45268;-86
2023/03/11 01:24:12;;;;;;;;;16.33;14.67;;;;;5.51;100.00;100399.13;4998007;28;44719;-85
2023/03/11 01:26:38;;;;;;;;;14.00;12.33;;;;;5.62;100.00;100412.28;5031908;28;44863;-87
2023/03/11 01:29:04;;;;;;;;;13.33;12.00;;;;;5.33;100.00;100370.41;5015185;28;46105;-88
2023/03/11 01:31:30;;;;;;;;;13.00;11.00;;;;;5.36;100.00;100380.91;5016636;28;46291;-86
2023/03/11 01:34:03;;;;;;;;;9.00;9.00;;;;;5.54;100.00;100413.22;5033713;28;45328;-87
2023/03/11 01:36:35;;;;;;;;;11.00;10.00;;;;;5.51;100.00;100418.16;5020378;28;45292;-87
2023/03/11 01:39:09;;;;;;;;;10.67;8.33;;;;;5.18;100.00;100353.19;5020910;28;44828;-86
2023/03/11 01:41:51;;;;;;;;;7.00;5.00;;;;;5.53;100.00;100413.41;5039617;28;46883;-88
2023/03/11 01:44:20;;;;;;;;;5.00;5.00;;;;;5.52;100.00;100431.56;5023894;28;44837;-88
2023/03/11 01:47:31;;;;;;;;;6.33;5.00;;;;;5.55;100.00;100419.50;5034949;28;44678;-87
2023/03/11 01:49:57;;;;;;;;;4.33;4.00;;;;;5.59;100.00;100418.09;5018283;28;45471;-88
2023/03/11 01:52:23;;;;;;;;;5.00;4.00;;;;;5.33;100.00;100383.13;5017227;28;45810;-86
2023/03/11 01:54:52;;;;;;;;;8.33;7.00;;;;;5.59;100.00;100426.25;5013397;28;45488;-86
2023/03/11 01:57:20;;;;;;;;;5.00;5.00;;;;;5.47;100.00;100396.78;5004491;28;45479;-88
2023/03/11 01:59:52;;;;;;;;;4.00;4.00;;;;;5.63;100.00;100436.59;5007760;28;45367;-87
2023/03/11 02:02:24;;;;;;;;;8.67;7.00;;;;;5.41;100.00;100404.84;5006892;28;45444;-87
2023/03/11 02:04:50;;;;;;;;;2.67;2.67;;;;;5.65;100.00;100436.41;5013139;28;46464;-87
2023/03/11 02:07:21;;;;;;;;;6.00;4.00;;;;;5.69;100.00;100440.44;5033559;28;45157;-88
2023/03/11 02:09:47;;;;;;;;;9.67;8.00;;;;;5.64;100.00;100421.09;5010967;28;46267;-87
2023/03/11 02:12:14;;;;;;;;;5.00;4.00;;;;;5.60;100.00;100426.06;5009287;28;45438;-88
2023/03/11 02:14:46;;;;;;;;;4.33;4.00;;;;;5.51;100.00;100432.63;5009941;28;44723;-89
2023/03/11 02:17:12;;;;;;;;;8.00;5.00;;;;;5.16;100.00;100361.53;5007150;28;44988;-90
2023/03/11 02:19:51;;;;;;;;;8.00;5.67;;;;;5.52;100.00;100411.69;5010937;28;44960;-89
2023/03/11 02:22:17;;;;;;;;;5.67;5.67;;;;;5.40;100.00;100393.09;5008589;28;47629;-88
2023/03/11 02:25:04;;;;;;;;;7.33;7.00;;;;;5.66;100.00;100435.38;5010701;28;45936;-88
2023/03/11 02:27:34;;;;;;;;;9.00;6.67;;;;;5.44;100.00;100402.59;5009901;28;45518;-89
2023/03/11 02:30:00;;;;;;;;;6.67;5.00;;;;;5.42;100.00;100414.66;5008081;28;45358;-87
2023/03/11 02:32:27;;;;;;;;;9.33;8.33;;;;;5.07;100.00;100374.34;5009367;28;45189;-89
2023/03/11 02:34:56;;;;;;;;;9.00;5.00;;;;;5.38;100.00;100427.78;5009192;28;45388;-88
2023/03/11 02:37:27;;;;;;;;;12.00;11.00;;;;;5.46;100.00;100444.06;5039588;28;44803;-89
2023/03/11 02:39:54;;;;;;;;;13.33;11.00;;;;;5.48;100.00;100435.72;5029998;28;45303;-89
2023/03/11 02:42:27;;;;;;;;;11.33;11.33;;;;;5.44;100.00;100416.19;5050471;28;45567;-88
2023/03/11 02:45:36;;;;;;;;;;;;;;;;;;;;;
2023/03/11 02:48:15;;;;;;;;;17.00;15.67;;;;;5.26;100.00;100377.59;5024959;28;68139;-85
2023/03/11 02:50:43;;;;;;;;;24.33;21.00;;;;;5.35;100.00;100403.69;5022301;28;44737;-85
2023/03/11 02:53:08;;;;;;;;;26.50;24.25;;;;;5.13;100.00;100381.78;5015763;28;45332;-87
2023/03/11 02:55:35;;;;;;;;;24.25;23.00;;;;;5.32;100.00;100405.94;5018269;28;45381;-85
2023/03/11 02:58:00;;;;;;;;;26.75;24.50;;;;;5.28;100.00;100408.16;5014079;28;44808;-85
2023/03/11 03:00:26;;;;;;;;;24.00;22.50;;;;;5.28;100.00;100410.88;5018814;28;44872;-86
2023/03/11 03:02:52;;;;;;;;;26.25;25.50;;;;;5.21;100.00;100410.78;5019401;28;45554;-86
2023/03/11 03:05:20;;;;;;;;;23.33;18.00;;;;;5.15;100.00;100402.50;5023184;28;44877;-86
2023/03/11 03:07:47;;;;;;;;;21.25;18.75;;;;;4.93;100.00;100372.44;5039867;28;44758;-86
2023/03/11 03:10:14;;;;;;;;;24.00;21.50;;;;;5.18;100.00;100415.72;5023099;28;44811;-86
2023/03/11 03:12:40;;;;;;;;;18.00;15.67;;;;;5.12;100.00;100401.00;5022039;28;45388;-86
2023/03/11 03:15:07;;;;;;;;;24.50;20.50;;;;;5.06;100.00;100391.69;5023925;28;44778;-85
2023/03/11 03:17:32;;;;;;;;;22.67;18.67;;;;;5.13;100.00;100408.97;5051581;28;44763;-86
2023/03/11 03:19:59;;;;;;;;;27.25;21.75;;;;;5.11;100.00;100410.16;5033429;28;44951;-86
2023/03/11 03:22:26;;;;;;;;;25.00;20.50;;;;;5.16;100.00;100401.47;5038160;28;45210;-87
2023/03/11 03:24:52;;;;;;;;;19.50;17.50;;;;;4.82;100.00;100334.81;5020189;28;45401;-87
2023/03/11 03:27:19;;;;;;;;;25.50;22.00;;;;;5.15;100.00;100387.03;5039261;27;45300;-87
2023/03/11 03:29:45;;;;;;;;;27.00;23.25;;;;;4.72;100.00;100322.31;5021625;28;44817;-86
2023/03/11 03:32:11;;;;;;;;;25.00;22.25;;;;;4.98;100.00;100369.16;5023914;28;45303;-86
2023/03/11 03:34:38;;;;;;;;;21.75;21.75;;;;;5.05;100.00;100384.56;5023490;28;45768;-86
2023/03/11 03:37:03;;;;;;;;;22.75;18.00;;;;;5.13;100.00;100399.94;5023918;28;45145;-86
2023/03/11 03:39:32;;;;;;;;;22.00;18.75;;;;;5.04;100.00;100377.41;5031643;28;46032;-86
2023/03/11 03:41:57;;;;;;;;;16.67;16.67;;;;;5.13;100.00;100406.25;5041610;28;46809;-86
2023/03/11 03:44:23;;;;;;;;;21.25;16.50;;;;;4.92;100.00;100368.84;5021275;28;45072;-86
2023/03/11 03:46:48;;;;;;;;;23.00;18.75;;;;;5.01;100.00;100394.09;5020686;28;45065;-85
2023/03/11 03:49:14;;;;;;;;;22.50;21.00;;;;;5.02;100.00;100390.34;5021208;28;45161;-86
2023/03/11 03:51:40;;;;;;;;;23.00;21.00;;;;;4.93;100.00;100399.59;5022793;28;45107;-87
2023/03/11 03:54:05;;;;;;;;;19.25;16.50;;;;;4.97;100.00;100394.63;5025010;28;44753;-85
2023/03/11 03:56:31;;;;;;;;;23.75;22.00;;;;;4.93;100.00;100391.44;5028851;28;44792;-84
2023/03/11 03:58:57;;;;;;;;;19.00;17.00;;;;;4.84;100.00;100393.38;5042001;28;46038;-85
2023/03/11 04:01:22;;;;;;;;;18.33;15.00;;;;;4.81;100.00;100403.78;5021702;28;45075;-84
2023/03/11 04:03:48;;;;;;;;;18.33;16.33;;;;;4.80;100.00;100386.59;5022991;28;45204;-83
2023/03/11 04:06:25;;;;;;;;;20.25;18.00;;;;;4.86;100.00;100390.47;5019508;28;45218;-83
2023/03/11 04:08:52;;;;;;;;;17.33;16.33;;;;;4.99;100.00;100420.63;5017237;28;45263;-84
2023/03/11 04:11:18;;;;;;;;;15.33;12.00;;;;;5.02;100.00;100420.25;5016972;28;45097;-83
2023/03/11 04:13:43;;;;;;;;;15.67;14.67;;;;;4.85;100.00;100405.94;5021047;28;44679;-82
2023/03/11 04:16:18;;;;;;;;;11.67;9.00;;;;;4.94;100.00;100414.91;5017071;28;45128;-85
2023/03/11 04:18:44;;;;;;;;;10.00;9.00;;;;;4.98;100.00;100418.91;5023824;28;45132;-83
2023/03/11 04:21:10;;;;;;;;;25.00;19.25;;;;;4.79;100.00;100390.38;5011748;28;46421;-84
2023/03/11 04:23:35;;;;;;;;;13.67;10.33;;;;;4.84;100.00;100401.53;5006206;28;45451;-82
2023/03/11 04:26:01;;;;;;;;;12.00;11.33;;;;;4.85;100.00;100394.22;5007083;28;45369;-82
2023/03/11 04:28:26;;;;;;;;;5.00;3.67;;;;;4.74;100.00;100382.72;5008146;28;45497;-82
2023/03/11 04:30:52;;;;;;;;;13.00;11.00;;;;;4.83;100.00;100407.13;5007678;28;46904;-84
2023/03/11 04:33:17;;;;;;;;;8.33;8.33;;;;;4.83;100.00;100413.41;5010991;28;45862;-83
2023/03/11 04:35:42;;;;;;;;;12.33;11.67;;;;;4.78;100.00;100424.81;5008449;28;45344;-83
2023/03/11 04:38:08;;;;;;;;;14.33;14.33;;;;;4.81;100.00;100430.94;5014639;28;45522;-83
2023/03/11 04:40:36;;;;;;;;;13.00;11.67;;;;;4.75;100.00;100422.47;5007403;28;46203;-84
2023/03/11 04:43:01;;;;;;;;;12.00;9.00;;;;;4.82;100.00;100432.59;5007369;28;45732;-83
2023/03/11 04:45:26;;;;;;;;;11.00;10.00;;;;;4.79;100.00;100433.84;5004235;28;45848;-84
2023/03/11 04:47:57;;;;;;;;;9.00;5.00;;;;;4.82;100.00;100433.47;5003560;28;45455;-84
2023/03/11 04:50:27;;;;;;;;;11.00;9.00;;;;;4.69;100.00;100415.03;5009351;28;45716;-84
2023/03/11 04:52:52;;;;;;;;;9.00;9.00;;;;;4.59;100.00;100395.41;5002736;28;45532;-84
2023/03/11 04:55:19;;;;;;;;;13.67;10.00;;;;;4.69;100.00;100408.75;5006368;28;45676;-87
2023/03/11 04:58:21;;;;;;;;;;;;;;;;;;;;;
2023/03/11 05:01:30;;;;;;;;;6.00;5.33;;;;;4.38;100.00;100361.56;5008774;28;74858;-86
2023/03/11 05:03:56;;;;;;;;;5.00;5.00;;;;;4.74;100.00;100420.75;5016496;28;45367;-85
2023/03/11 05:06:22;;;;;;;;;4.33;4.00;;;;;4.66;100.00;100415.38;5007267;28;45315;-85
2023/03/11 05:08:48;;;;;;;;;8.00;6.67;;;;;4.66;100.00;100445.28;5003685;28;45267;-86
2023/03/11 05:11:14;;;;;;;;;5.67;5.67;;;;;4.68;100.00;100450.53;5015865;28;47291;-86
2023/03/11 05:13:43;;;;;;;;;6.33;6.33;;;;;4.64;100.00;100450.03;5020499;28;45133;-88
2023/03/11 05:16:11;;;;;;;;;9.00;8.00;;;;;4.57;100.00;100455.31;5014685;28;45551;-87
2023/03/11 05:18:44;;;;;;;;;7.00;6.00;;;;;4.16;100.00;100394.91;5016430;28;45564;-89
2023/03/11 05:21:11;;;;;;;;;4.33;3.00;;;;;4.31;100.00;100417.59;4991371;28;45585;-85
2023/03/11 05:23:37;;;;;;;;;7.00;7.00;;;;;4.22;100.00;100407.78;5012055;28;45311;-85
2023/03/11 05:26:03;;;;;;;;;3.67;3.67;;;;;4.49;100.00;100454.50;5006856;28;45418;-84
2023/03/11 05:28:32;;;;;;;;;6.00;4.33;;;;;4.10;100.00;100395.63;4993468;28;45805;-84
2023/03/11 05:31:00;;;;;;;;;3.00;3.00;;;;;4.19;100.00;100414.44;4993032;28;47069;-84
2023/03/11 05:33:31;;;;;;;;;8.67;7.67;;;;;3.97;100.00;100382.63;5011033;28;45501;-83
2023/03/11 05:36:07;;;;;;;;;5.00;5.00;;;;;4.40;100.00;100456.41;5004652;28;45694;-86
2023/03/11 05:38:42;;;;;;;;;4.00;4.00;;;;;4.39;100.00;100468.31;5006500;28;45443;-87
2023/03/11 05:41:08;;;;;;;;;6.00;3.33;;;;;4.28;100.00;100455.97;5005479;28;45550;-85
2023/03/11 05:43:34;;;;;;;;;3.00;1.00;;;;;4.32;100.00;100480.88;5001823;28;45688;-86
2023/03/11 05:46:02;;;;;;;;;7.33;7.00;;;;;4.04;100.00;100452.28;5016082;28;45419;-86
2023/03/11 05:48:28;;;;;;;;;3.67;3.67;;;;;4.11;100.00;100467.88;5034867;28;45930;-85
2023/03/11 05:50:54;;;;;;;;;7.00;7.00;;;;;4.11;100.00;100463.28;5017599;28;45456;-84
2023/03/11 05:53:20;;;;;;;;;7.00;5.33;;;;;4.29;100.00;100475.81;5025108;28;45249;-85
2023/03/11 05:55:58;;;;;;;;;6.00;6.00;;;;;4.01;100.00;100425.50;5014938;28;44924;-85
2023/03/11 05:58:31;;;;;;;;;8.00;7.00;;;;;4.06;100.00;100419.56;5021057;28;47066;-83
2023/03/11 06:00:58;;;;;;;;;4.00;4.00;;;;;4.30;100.00;100459.34;4990912;28;45387;-84
2023/03/11 06:03:24;;;;;;;;;8.00;7.00;;;;;4.18;100.00;100423.59;5000238;28;45850;-86
2023/03/11 06:05:56;;;;;;;;;9.33;8.00;;;;;4.41;100.00;100486.09;4998594;28;45825;-86
2023/03/11 06:08:21;;;;;;;;;5.33;5.00;;;;;4.41;100.00;100491.53;5005256;28;45699;-84
2023/03/11 06:10:47;;;;;;;;;11.00;8.33;;;;;4.39;100.00;100499.00;4999245;28;46691;-84
2023/03/11 06:13:14;;;;;;;;;10.00;7.33;;;;;4.27;100.00;100480.53;4998870;28;45397;-85
2023/03/11 06:15:39;;;;;;;;;7.33;4.00;;;;;4.29;100.00;100471.22;5013370;28;45723;-83
2023/03/11 06:19:02;;;;;;;;;;;;;;;;;;;;;
2023/03/11 06:22:20;;;;;;;;;9.00;7.33;;;;;4.41;100.00;100486.09;4998910;28;75421;-86
2023/03/11 06:24:48;;;;;;;;;11.00;7.00;;;;;4.18;100.00;100449.88;4936802;28;45614;-85
2023/03/11 06:27:17;;;;;;;;;8.67;7.00;;;;;4.22;100.00;100432.22;4999534;28;45376;-86
2023/03/11 06:29:43;;;;;;;;;4.33;4.33;;;;;4.31;100.00;100455.63;5002798;28;45487;-84
2023/03/11 06:32:09;;;;;;;;;6.33;6.33;;;;;4.44;100.00;100478.63;5013064;28;46944;-84
2023/03/11 06:34:34;;;;;;;;;6.33;5.00;;;;;4.46;100.00;100492.88;5001326;28;45674;-84
2023/03/11 06:37:00;;;;;;;;;5.67;4.00;;;;;4.53;100.00;100488.44;5006665;28;45561;-83
2023/03/11 06:39:25;;;;;;;;;5.00;4.67;;;;;4.59;100.00;100487.72;4997197;28;45426;-83
2023/03/11 06:41:51;;;;;;;;;9.00;9.00;;;;;4.71;100.00;100493.63;4994947;28;46000;-83
2023/03/11 06:44:16;;;;;;;;;6.33;5.00;;;;;4.81;100.00;100496.97;4999899;28;45761;-84
2023/03/11 06:46:42;;;;;;;;;6.33;4.67;;;;;4.95;100.00;100487.22;5019180;28;45352;-83
2023/03/11 06:49:08;;;;;;;;;5.67;5.67;;;;;4.99;100.00;100466.81;5003976;28;45673;-84
2023/03/11 06:51:33;;;;;;;;;5.00;5.00;;;;;5.17;100.00;100471.13;5007844;28;46894;-83
2023/03/11 06:53:59;;;;;;;;;6.33;6.33;;;;;5.42;100.00;100491.69;5010057;28;45929;-83
2023/03/11 06:56:24;;;;;;;;;9.33;5.00;;;;;5.57;100.00;100490.88;5010343;28;45503;-85
2023/03/11 06:58:52;;;;;;;;;6.67;5.67;;;;;5.68;100.00;100497.78;5003914;28;45568;-84
2023/03/11 07:01:21;;;;;;;;;5.33;3.00;;;;;5.75;100.00;100505.00;5004081;28;45506;-83
2023/03/11 07:03:47;;;;;;;;;3.67;3.67;;;;;5.75;100.00;100521.34;5001033;28;45577;-84
2023/03/11 07:06:15;;;;;;;;;3.00;3.00;;;;;5.69;100.00;100530.25;5000025;28;45495;-84
2023/03/11 07:08:41;;;;;;;;;5.67;5.00;;;;;5.67;100.00;100521.38;4999807;28;45471;-83
2023/03/11 07:11:11;;;;;;;;;6.33;3.67;;;;;5.70;100.00;100531.91;4998786;28;45474;-85
2023/03/11 07:13:49;;;;;;;;;8.00;5.00;;;;;5.70;100.00;100528.34;5001059;28;45537;-87
2023/03/11 07:16:18;;;;;;;;;8.67;6.67;;;;;5.78;100.00;100531.84;5005201;28;44863;-84
2023/03/11 07:19:06;;;;;;;;;4.33;4.33;;;;;5.89;100.00;100524.28;5007333;28;47037;-85
2023/03/11 07:21:32;;;;;;;;;4.00;4.00;;;;;5.95;100.00;100545.31;5002761;28;45529;-85
2023/03/11 07:24:00;;;;;;;;;9.33;4.00;;;;;5.94;100.00;100549.94;5002827;28;45522;-84
2023/03/11 07:26:29;;;;;;;;;7.67;5.00;;;;;5.90;100.00;100545.00;5005055;28;45376;-86
2023/03/11 07:28:56;;;;;;;;;5.67;5.67;;;;;6.00;100.00;100540.19;5001267;28;45936;-84
2023/03/11 07:31:25;;;;;;;;;6.00;5.00;;;;;6.10;100.00;100551.69;5005201;28;46468;-84
2023/03/11 07:33:51;;;;;;;;;7.33;6.00;;;;;6.16;100.00;100548.22;5006559;28;45451;-84
2023/03/11 07:36:22;;;;;;;;;6.50;6.00;;;;;6.21;100.00;100553.09;4999106;28;44876;-87
2023/03/11 07:39:01;;;;;;;;;4.67;4.00;;;;;6.16;100.00;100534.59;5015035;28;44879;-88
2023/03/11 07:41:29;;;;;;;;;11.00;5.00;;;;;6.43;100.00;100562.25;5008013;28;45865;-87
2023/03/11 07:43:57;;;;;;;;;7.00;6.00;;;;;6.26;100.00;100526.16;5011099;28;45929;-85
2023/03/11 07:46:25;;;;;;;;;7.00;5.00;;;;;6.38;100.00;100537.47;4997072;28;45590;-86
2023/03/11 07:48:51;;;;;;;;;5.67;5.67;;;;;6.69;100.00;100544.59;5003934;28;45484;-87
2023/03/11 07:51:19;;;;;;;;;6.00;4.33;;;;;6.67;100.00;100525.69;5002226;28;45841;-85
2023/03/11 07:53:46;;;;;;;;;10.00;7.00;;;;;6.80;100.00;100538.69;5019154;28;45485;-86
2023/03/11 07:56:13;;;;;;;;;6.33;5.00;;;;;6.93;100.00;100527.09;5008064;28;45575;-85
2023/03/11 07:58:39;;;;;;;;;7.00;7.00;;;;;6.97;100.00;100489.41;4997866;28;47334;-88
2023/03/11 08:01:09;;;;;;;;;7.00;5.00;;;;;7.40;100.00;100530.38;5003083;28;47113;-87
2023/03/11 08:03:36;;;;;;;;;9.33;6.00;;;;;7.54;100.00;100558.63;5001244;28;45616;-85
2023/03/11 08:06:30;;;;;;;;;6.00;6.00;;;;;7.77;100.00;100586.59;5006109;28;45959;-86
2023/03/11 08:09:09;;;;;;;;;4.67;3.67;;;;;7.73;100.00;100587.19;4997991;28;44806;-86
2023/03/11 08:11:36;;;;;;;;;8.67;8.00;;;;;7.48;100.00;100546.59;4978596;28;45970;-85
2023/03/11 08:14:02;;;;;;;;;9.33;6.67;;;;;7.65;100.00;100576.38;4996998;28;45431;-85
2023/03/11 08:16:28;;;;;;;;;8.67;7.00;;;;;7.76;100.00;100584.91;5010871;28;45446;-87
2023/03/11 08:18:54;;;;;;;;;6.67;6.67;;;;;7.75;100.00;100585.97;5004527;28;47295;-85
2023/03/11 08:21:28;;;;;;;;;13.00;11.00;;;;;7.75;100.00;100585.09;5001391;28;46134;-86
2023/03/11 08:23:57;;;;;;;;;8.33;6.67;;;;;7.63;100.00;100529.34;5008389;28;45401;-84
2023/03/11 08:26:24;;;;;;;;;6.33;6.00;;;;;7.95;100.00;100561.56;4999479;28;45596;-84
2023/03/11 08:28:51;;;;;;;;;7.00;6.00;;;;;8.04;100.00;100539.56;5022419;28;45601;-87
2023/03/11 08:31:23;;;;;;;;;8.00;7.00;;;;;8.19;100.00;100556.72;5008269;28;45102;-88
2023/03/11 08:33:50;;;;;;;;;3.67;3.00;;;;;8.29;100.00;100518.97;5016220;28;45029;-90
2023/03/11 08:36:17;;;;;;;;;5.67;5.67;;;;;8.55;100.00;100550.28;5018544;28;44804;-88
2023/03/11 08:38:43;;;;;;;;;4.33;4.33;;;;;8.89;100.00;100567.75;5009967;28;44987;-88
2023/03/11 08:41:10;;;;;;;;;7.33;5.33;;;;;8.96;100.00;100559.56;5007802;28;45627;-88
2023/03/11 08:43:36;;;;;;;;;6.00;5.67;;;;;8.97;100.00;100566.72;5009095;28;44877;-87
2023/03/11 08:46:06;;;;;;;;;8.00;6.00;;;;;8.97;100.00;100573.03;4982070;28;45325;-87
2023/03/11 08:48:32;;;;;;;;;5.00;5.00;;;;;8.64;100.00;100540.03;4988872;28;46203;-86
2023/03/11 08:50:58;;;;;;;;;9.00;6.33;;;;;8.71;100.00;100559.22;4993992;28;46115;-89
2023/03/11 08:53:36;;;;;;;;;7.33;7.33;;;;;8.71;100.00;100542.81;4981594;28;46213;-89
2023/03/11 08:56:02;;;;;;;;;9.67;8.00;;;;;9.35;100.00;100567.06;5016031;28;45574;-85
2023/03/11 08:58:28;;;;;;;;;6.67;6.67;;;;;9.12;100.00;100523.66;5001131;28;46043;-85
2023/03/11 09:00:54;;;;;;;;;7.00;7.00;;;;;9.29;100.00;100564.31;4990772;28;47087;-85
2023/03/11 09:03:21;;;;;;;;;7.33;7.33;;;;;9.14;100.00;100545.31;4987486;28;45725;-87
2023/03/11 09:05:47;;;;;;;;;10.00;8.33;;;;;9.52;100.00;100589.47;5009489;28;45533;-88
2023/03/11 09:08:19;;;;;;;;;9.33;7.67;;;;;9.54;100.00;100586.53;4999841;28;45766;-87
2023/03/11 09:10:48;;;;;;;;;4.00;4.00;;;;;9.44;100.00;100558.69;4995878;28;45915;-87
2023/03/11 09:13:14;;;;;;;;;8.00;6.00;;;;;9.51;100.00;100571.34;4999334;28;46143;-89
2023/03/11 09:15:40;;;;;;;;;10.33;7.00;;;;;9.58;100.00;100557.69;4997315;28;45799;-86
2023/03/11 09:18:07;;;;;;;;;9.00;7.33;;;;;9.26;100.00;100540.09;5003550;28;46998;-86
2023/03/11 09:20:36;;;;;;;;;7.33;6.00;;;;;9.57;100.00;100590.75;5004552;28;45540;-85
2023/03/11 09:23:03;;;;;;;;;8.67;8.67;;;;;9.49;100.00;100567.13;4986719;28;45468;-83
2023/03/11 09:25:29;;;;;;;;;8.33;6.00;;;;;9.44;100.00;100564.16;5002902;28;45392;-84
2023/03/11 09:27:57;;;;;;;;;10.00;7.00;;;;;9.51;100.00;100570.50;5005055;28;45658;-86
2023/03/11 09:30:30;;;;;;;;;8.00;7.00;;;;;9.34;100.00;100545.38;4998396;28;45159;-85
2023/03/11 09:32:57;;;;;;;;;13.00;8.67;;;;;9.61;100.00;100549.06;4998225;28;44842;-88
2023/03/11 09:35:23;;;;;;;;;7.00;7.00;;;;;9.87;100.00;100564.66;5020398;28;45463;-86
2023/03/11 09:37:49;;;;;;;;;7.67;7.67;;;;;10.11;100.00;100559.63;4994274;28;45942;-88
2023/03/11 09:40:26;;;;;;;;;7.67;6.00;;;;;10.36;100.00;100554.41;5013423;28;45392;-91
2023/03/11 09:43:31;;;;;;;;;8.00;7.67;;;;;11.40;100.00;100573.72;5016635;28;45201;-86
2023/03/11 09:46:19;;;;;;;;;7.33;6.00;;;;;11.82;100.00;100595.25;5013565;28;45081;-87
2023/03/11 09:49:03;;;;;;;;;8.67;6.00;;;;;11.55;100.00;100589.06;4999650;28;45793;-87
2023/03/11 09:52:09;;;;;;;;;7.00;7.00;;;;;11.43;100.00;100589.75;5014795;28;46114;-89
2023/03/11 09:54:44;;;;;;;;;6.67;6.33;;;;;11.39;100.00;100561.06;5009537;28;45326;-88
2023/03/11 09:57:17;;;;;;;;;8.67;7.33;;;;;11.32;100.00;100571.22;4997156;28;45097;-86
2023/03/11 09:59:45;;;;;;;;;5.33;5.33;;;;;11.42;100.00;100590.84;5015044;28;45387;-86
2023/03/11 10:02:20;;;;;;;;;11.67;9.00;;;;;11.18;100.00;100536.66;5024834;28;45873;-90
2023/03/11 10:04:57;;;;;;;;;7.33;5.00;;;;;11.52;100.00;100587.59;5012913;28;45491;-88
2023/03/11 10:07:48;;;;;;;;;8.00;7.00;;;;;11.39;100.00;100588.53;5001938;28;45414;-89
2023/03/11 10:10:16;;;;;;;;;5.33;5.33;;;;;11.49;100.00;100577.06;4989660;28;46118;-89
2023/03/11 10:13:01;;;;;;;;;4.33;4.33;;;;;11.84;100.00;100601.34;4991072;28;46454;-89
2023/03/11 10:15:36;;;;;;;;;5.33;5.33;;;;;11.92;100.00;100595.59;4982751;28;45448;-89
2023/03/11 10:18:32;;;;;;;;;6.67;6.67;;;;;12.17;100.00;100614.91;4993979;28;45127;-88
2023/03/11 10:21:00;;;;;;;;;5.00;5.00;;;;;11.93;100.00;100558.84;4996998;28;46948;-89
2023/03/11 10:23:44;;;;;;;;;6.00;4.67;;;;;12.41;100.00;100612.41;5012610;28;46533;-88
2023/03/11 10:27:01;;;;;;;;;5.00;5.00;;;;;12.06;100.00;100566.16;5002010;28;45451;-89
2023/03/11 10:29:45;;;;;;;;;8.67;7.67;;;;;12.18;100.00;100602.00;4996129;28;45908;-87
2023/03/11 10:32:24;;;;;;;;;6.67;6.33;;;;;12.26;100.00;100601.75;4985462;28;45632;-88
2023/03/11 10:35:24;;;;;;;;;6.00;6.00;;;;;11.79;100.00;100580.03;5003033;28;45668;-91
2023/03/11 10:38:11;;;;;;;;;5.00;4.00;;;;;11.45;100.00;100568.41;4981623;28;45624;-88
2023/03/11 10:40:43;;;;;;;;;5.67;5.33;;;;;11.49;100.00;100555.09;4991990;28;45389;-86
2023/03/11 10:43:20;;;;;;;;;8.33;4.67;;;;;11.70;100.00;100588.78;4975060;28;46939;-87
2023/03/11 10:45:57;;;;;;;;;7.67;6.00;;;;;11.46;100.00;100537.13;5002809;28;45814;-86
2023/03/11 10:48:37;;;;;;;;;7.00;7.00;;;;;11.89;100.00;100593.31;4993684;28;45555;-87
2023/03/11 10:51:34;;;;;;;;;7.00;7.00;;;;;12.17;100.00;100595.69;4997895;28;45873;-88
2023/03/11 10:54:03;;;;;;;;;4.00;4.00;;;;;12.51;100.00;100604.50;4978210;28;46757;-87
2023/03/11 10:56:42;;;;;;;;;5.33;4.00;;;;;12.40;99.10;100572.22;4976430;28;47397;-86
2023/03/11 10:59:29;;;;;;;;;21.33;19.00;;;;;12.92;99.61;100598.59;4996168;28;45183;-89
2023/03/11 11:01:59;;;;;;;;;6.00;6.00;;;;;12.95;97.04;100573.34;5000887;28;45448;-89
2023/03/11 11:04:40;;;;;;;;;8.00;5.33;;;;;12.80;97.05;100591.09;4993627;28;45378;-89
2023/03/11 11:07:33;;;;;;;;;5.33;5.33;;;;;12.66;95.66;100598.63;4997982;28;47098;-87
2023/03/11 11:10:20;;;;;;;;;7.00;6.00;;;;;12.43;94.87;100590.19;4988054;28;44941;-88
2023/03/11 11:13:02;;;;;;;;;8.00;7.00;;;;;12.32;95.77;100580.75;4983144;28;45424;-86
2023/03/11 11:15:36;;;;;;;;;7.00;7.00;;;;;12.54;96.26;100584.78;5001829;28;45269;-88
2023/03/11 11:18:19;;;;;;;;;11.00;7.33;;;;;12.99;95.21;100591.94;4997932;28;47556;-87
2023/03/11 11:21:04;;;;;;;;;10.00;8.00;;;;;13.58;95.58;100599.75;5000108;28;45483;-86
2023/03/11 11:23:34;;;;;;;;;8.33;6.00;;;;;13.77;92.50;100593.13;5007309;28;45121;-90
2023/03/11 11:26:04;;;;;;;;;7.67;5.33;;;;;13.55;91.49;100553.38;4970594;28;46331;-88
2023/03/11 11:28:36;;;;;;;;;8.33;6.33;;;;;13.74;88.74;100563.28;4999917;28;47217;-87
2023/03/11 11:31:14;;;;;;;;;7.67;6.00;;;;;13.75;87.93;100586.16;4991153;28;45321;-85
2023/03/11 11:33:50;;;;;;;;;9.00;7.33;;;;;13.50;88.01;100584.38;4988728;28;45014;-88
2023/03/11 11:36:17;;;;;;;;;5.67;4.67;;;;;13.50;88.11;100592.66;4993360;28;45758;-87
2023/03/11 11:38:44;;;;;;;;;10.67;6.67;;;;;13.59;89.00;100579.38;4998955;28;46156;-87